Blue Oak Ranch Reserve, California Weather observations

Data are for 10 minute period ending at time listed.
 Day   Time   Solar   Ave.   Ave.  Ave.  Vector  Max.   Baro.   Total    
  of    of     Rad.   Air    Rel.  Wind   Wind   Wind  Press.  Precip.   
Year   Day            Temp.  Hum.  Speed  Dir.   Gust                    
2014   (PST)  Kw/m2    F      %     mph   deg.    mph    mb.     in.     
-------------------------------------------------------------------------
 274    9:20   0.56   74.1    23    3.0    95     7.2   946.7    0.00 
 274    9:30   0.59   75.1    22    4.8    60    12.0   946.6    0.00 
 274    9:40   0.61   76.1    22    5.5    59    13.2   946.6    0.00 
 274    9:50   0.64   76.6    21    3.7    58    12.3   946.5    0.00 
 274   10:00   0.66   76.8    22    4.3   231    13.7   946.5    0.00 
 274   10:10   0.68   75.8    27    5.4   263     9.9   946.5    0.00 
 274   10:20   0.70   76.3    26    4.8   247     8.8   946.4    0.00 
 274   10:30   0.72   77.5    22    3.2   299     9.5   946.3    0.00 
 274   10:40   0.73   77.7    19    7.3    27    14.1   946.1    0.00 
 274   10:50   0.74   78.5    18    5.0    32    10.5   946.1    0.00 
 274   11:00   0.76   79.6    17    4.8   335    11.8   946.0    0.00 
 274   11:10   0.77   80.1    20    3.8   224     9.8   945.9    0.00 
 274   11:20   0.77   78.1    24    7.4   227    14.5   945.9    0.00 
 274   11:30   0.78   77.6    24    6.1   245    12.4   945.9    0.00 
 274   11:40   0.78   77.9    23    6.5   240    10.5   945.9    0.00 
 274   11:50   0.79   78.0    23    5.9   264    10.1   945.9    0.00 
 274   12:00   0.79   79.1    22    6.5   231    10.9   945.8    0.00 
 274   12:10   0.78   78.4    21    5.3   180     9.3   945.8    0.00 
 274   12:20   0.79   79.3    20    4.0   191     7.5   945.7    0.00 
 274   12:30   0.78   80.7    18    4.7   196     8.8   945.6    0.00 
 274   12:40   0.78   81.4    17    3.2   241     6.8   945.4    0.00 
 274   12:50   0.74   82.3    16    4.0   240     7.2   945.3    0.00 
 274   13:00   0.76   82.9    14    3.3    87     8.2   945.1    0.00 
 274   13:10   0.75   82.8    13    5.2   109    10.1   945.0    0.00 
 274   13:20   0.74   82.2    14    3.3    96     9.3   944.9    0.00 
 274   13:30   0.72   83.0    13    5.3    74    12.1   944.8    0.00 
 274   13:40   0.71   82.4    13    5.6    38    14.4   944.8    0.00 
 274   13:50   0.69   82.8    13    4.3    43    10.4   944.8    0.00 
 274   14:00   0.67   82.8    13    6.6    32    12.0   944.7    0.00 
 274   14:10   0.65   82.7    12    6.2    57    12.8   944.8    0.00 
 274   14:20   0.63   82.8    12    4.5    26    10.1   944.8    0.00 
 274   14:30   0.61   83.2    12    4.4    76    16.0   944.9    0.00 
 274   14:40   0.59   82.7    12    5.4    50    13.4   944.9    0.00 
 274   14:50   0.56   82.1    11    4.5    49     9.1   945.0    0.00 
 274   15:00   0.53   82.3    12    3.5     6     8.3   945.0    0.00 
 274   15:10   0.50   83.1    12    2.9    43     7.4   945.0    0.00 
 274   15:20   0.47   81.7    11    4.8   354    11.5   945.0    0.00 
 274   15:30   0.44   81.6    11    5.3    16    12.1   945.0    0.00 
 274   15:40   0.41   81.1    12    6.4    33    13.2   945.0    0.00 
 274   15:50   0.38   80.8    12    5.8    27    11.2   945.1    0.00 
 274   16:00   0.35   81.8    12    4.0   359    10.2   945.1    0.00 
 274   16:10   0.32   80.9    12    5.3    14    10.4   945.2    0.00 
 274   16:20   0.28   80.2    12    4.8    24    10.3   945.3    0.00 
 274   16:30   0.25   79.7    12    5.3    22     9.5   945.4    0.00 
 274   16:40   0.22   79.2    13    5.5    26     9.9   945.6    0.00 
 274   16:50   0.18   79.0    13    3.9     0     9.5   945.7    0.00 
 274   17:00   0.15   78.4    14    4.1    12     8.5   945.8    0.00 
 274   17:10   0.12   77.6    14    4.6    32     9.7   945.8    0.00 
 274   17:20   0.08   76.5    15    4.9    33     7.7   945.8    0.00 
 274   17:30   0.06   75.2    16    4.0    22     6.8   945.9    0.00 
 274   17:40   0.01   73.0    17    3.2    31     5.6   946.1    0.00 
 274   17:50   0.01   70.6    19    2.6    24     4.1   946.2    0.00 
 274   18:00   0.01   68.5    21    2.0    14     3.4   946.2    0.00 
 274   18:10   0.00   65.8    23    0.7    96     2.2   946.2    0.00 
 274   18:20   0.00   64.0    25    0.5    66     1.6   946.1    0.00 
 274   18:30   0.00   64.0    25    2.0    14     5.4   945.9    0.00 
 274   18:40   0.00   63.7    26    0.3   142     1.8   945.9    0.00 
 274   18:50   0.00   64.5    25    1.2    22     3.7   945.9    0.00 
 274   19:00   0.00   62.2    28    1.7    45     3.3   946.0    0.00 
 274   19:10   0.00   60.9    29    2.7    38     5.2   946.0    0.00 
 274   19:20   0.00   60.9    29    2.9    56     7.0   946.1    0.00 
 274   19:30   0.00   60.4    30    2.3    68     3.7   946.3    0.00 
 274   19:40   0.00   59.5    30    2.5    68     4.7   946.4    0.00 
 274   19:50   0.00   59.9    29    1.0    51     3.2   946.4    0.00 
 274   20:00   0.00   59.5    30    1.5    21     5.2   946.6    0.00 
 274   20:10   0.00   59.6    30    1.3    62     5.1   946.7    0.00 
 274   20:20   0.00   58.9    31    0.4    50     2.4   947.0    0.00 
 274   20:30   0.00   58.3    32    0.2   248     0.9   947.0    0.00 
 274   20:40   0.00   57.4    33    1.6   315     2.5   947.1    0.00 
 274   20:50   0.00   57.5    33    0.4   312     1.8   947.2    0.00 
 274   21:00   0.00   57.6    33    0.5    61     2.4   947.3    0.00 
 274   21:10   0.00   56.7    34    0.3     6     2.0   947.4    0.00 
 274   21:20   0.00   55.6    36    0.5   308     1.6   947.4    0.00 
 274   21:30   0.00   55.4    36    1.0   286     2.8   947.5    0.00 
 274   21:40   0.00   55.4    36    0.6   332     1.8   947.6    0.00 
 274   21:50   0.00   55.5    37    1.9   305     4.6   947.7    0.00 
 274   22:00   0.00   54.4    38    1.1   295     2.5   947.8    0.00 
 274   22:10   0.00   55.3    38    1.3    61     2.3   948.0    0.00 
 274   22:20   0.00   54.1    40    2.3   330     4.5   948.0    0.00 
 274   22:30   0.00   53.1    40    1.2   309     2.2   947.9    0.00 
 274   22:40   0.00   53.7    40    0.9   304     2.3   948.0    0.00 
 274   22:50   0.00   53.9    39    1.3    37     3.6   948.0    0.00 
 274   23:00   0.00   54.1    39    0.5    26     2.2   948.0    0.00 
 274   23:10   0.00   53.9    39    0.6   296     1.8   948.0    0.00 
 274   23:20   0.00   53.7    39    0.7   315     2.0   948.0    0.00 
 274   23:30   0.00   53.8    39    0.6   293     1.8   948.0    0.00 
 274   23:40   0.00   53.9    39    0.8   289     1.8   948.0    0.00 
 274   23:50   0.00   53.9    39    0.4   344     1.6   948.0    0.00 
 275    0:00   0.00   54.2    39    1.5   294     3.2   948.0    0.00 
 275    0:10   0.00   53.5    40    0.5   338     1.5   948.0    0.00 
 275    0:20   0.00   53.6    40    0.1    91     0.7   948.1    0.00 
 275    0:30   0.00   53.8    40    0.6   305     2.2   948.2    0.00 
 275    0:40   0.00   54.1    40    0.4   110     1.2   948.3    0.00 
 275    0:50   0.00   53.8    40    0.5    64     2.0   948.4    0.00 
 275    1:00   0.00   53.1    41    1.6   301     4.3   948.4    0.00 
 275    1:10   0.00   53.5    40    0.8   296     3.8   948.4    0.00 
 275    1:20   0.00   53.6    40    0.2   205     1.3   948.5    0.00 
 275    1:30   0.00   54.0    39    0.7   329     1.4   948.5    0.00 
 275    1:40   0.00   53.7    40    0.5    61     1.5   948.5    0.00 
 275    1:50   0.00   53.8    39    1.5   289     3.4   948.5    0.00 
 275    2:00   0.00   53.7    39    0.7   329     1.8   948.4    0.00 
 275    2:10   0.00   54.0    39    0.7    50     2.8   948.3    0.00 
 275    2:20   0.00   54.7    38    1.5   258     2.6   948.2    0.00 
 275    2:30   0.00   55.3    38    0.9     1     2.1   948.2    0.00 
 275    2:40   0.00   55.1    38    0.5   296     2.1   948.1    0.00 
 275    2:50   0.00   54.1    39    2.2   300     3.6   948.1    0.00 
 275    3:00   0.00   53.8    39    0.2    81     1.9   948.2    0.00 
 275    3:10   0.00   54.7    39    1.4    91     2.6   948.2    0.00 
 275    3:20   0.00   54.5    40    1.4   357     2.6   948.3    0.00 
 275    3:30   0.00   54.4    39    2.8   280     5.7   948.3    0.00 
 275    3:40   0.00   55.6    38    0.7   352     4.5   948.3    0.00 
 275    3:50   0.00   55.0    40    1.5    67     3.3   948.3    0.00 
 275    4:00   0.00   52.8    44    1.7   314     3.1   948.3    0.00 
 275    4:10   0.00   51.7    45    1.9   307     2.9   948.5    0.00 
 275    4:20   0.00   52.7    43    1.0    29     2.7   948.6    0.00 
 275    4:30   0.00   53.2    42    0.9    76     2.3   948.6    0.00 
 275    4:40   0.00   52.9    43    2.5   293     3.4   948.8    0.00 
 275    4:50   0.00   52.2    43    1.8    29     2.9   948.9    0.00 
 275    5:00   0.00   52.6    44    0.9    78     2.1   948.9    0.00 
 275    5:10   0.00   52.5    44    1.0    82     4.3   949.0    0.00 
 275    5:20   0.00   51.8    45    0.9   345     4.2   949.0    0.00 
 275    5:30   0.00   52.9    43    0.8   332     2.9   949.1    0.00 
 275    5:40   0.00   54.0    41    1.1   299     2.5   949.3    0.00 
 275    5:50   0.00   55.9    38    0.9   250     2.5   949.3    0.00 
 275    6:00   0.01   56.1    37    0.8   291     2.0   949.4    0.00 
 275    6:10   0.01   55.6    38    0.9   306     2.9   949.5    0.00 
 275    6:20   0.01   55.7    37    1.9    60     3.9   949.5    0.00 
 275    6:30   0.01   54.6    41    0.5   267     2.7   949.6    0.00 
 275    6:40   0.02   55.1    38    0.5   279     1.8   949.7    0.00 
 275    6:50   0.04   55.5    39    1.8   300     3.3   949.8    0.00 
 275    7:00   0.13   56.1    36    1.3   124     3.1   949.9    0.00 
 275    7:10   0.16   59.5    34    1.5    70     3.2   950.0    0.00 
 275    7:20   0.19   63.8    31    2.3    73     4.7   949.9    0.00 
 275    7:30   0.22   66.8    29    1.5    82     3.9   949.8    0.00 
 275    7:40   0.26   69.3    26    1.2   293     2.9   949.8    0.00 
 275    7:50   0.29   70.6    25    0.7   124     3.6   949.9    0.00 
 275    8:00   0.32   74.9    20    1.4   129     2.6   950.1    0.00 
 275    8:10   0.35   76.9    18    1.5   162     3.1   950.3    0.00 
 275    8:20   0.39   79.3    17    1.3   211     3.4   950.5    0.00 
 275    8:30   0.42   81.5    16    1.4   157     3.4   950.7    0.00 
 275    8:40   0.45   80.7    18    3.5   152     8.7   950.8    0.00 
 275    8:50   0.47   79.8    19    4.7   170     8.2   950.8    0.00 
 275    9:00   0.50   80.5    18    3.9   230     6.7   950.8    0.00 
 275    9:10   0.53   81.0    18    4.5   245     7.4   950.8    0.00 

Return to Blue Oak Ranch Reserve graphs page.


Western Regional Climate Center,wrcc@dri.edu